createdAt,value
2022-08-19T00:00:05.607Z,19.8
2022-08-19T00:01:06.247Z,19.9
2022-08-19T00:02:04.972Z,19.7
2022-08-19T00:03:07.071Z,19.8
2022-08-19T00:04:05.028Z,19.7
2022-08-19T00:05:06.843Z,19.7
2022-08-19T00:06:08.015Z,19.8
2022-08-19T00:07:06.985Z,19.7
2022-08-19T00:08:06.226Z,19.7
2022-08-19T00:09:12.004Z,19.7
2022-08-19T00:10:05.562Z,19.7
2022-08-19T00:11:06.764Z,19.7
2022-08-19T00:12:05.514Z,19.8
2022-08-19T00:13:05.524Z,19.8
2022-08-19T00:14:05.550Z,19.7
2022-08-19T00:15:12.223Z,19.7
2022-08-19T00:16:05.817Z,19.5
2022-08-19T00:17:06.434Z,19.3
2022-08-19T00:18:09.690Z,19.1
2022-08-19T00:19:05.846Z,19.2
2022-08-19T00:20:05.914Z,19.1
2022-08-19T00:21:10.202Z,19
2022-08-19T00:22:07.277Z,19
2022-08-19T00:23:06.320Z,19.1
2022-08-19T00:24:08.591Z,19
2022-08-19T00:25:08.214Z,18.9
2022-08-19T00:26:08.055Z,18.9
2022-08-19T00:27:25.407Z,18.9
2022-08-19T00:28:06.370Z,18.8
2022-08-19T00:29:06.485Z,18.7
2022-08-19T00:30:07.842Z,18.7
2022-08-19T00:31:07.019Z,18.8
2022-08-19T00:32:06.819Z,18.7
2022-08-19T00:33:09.002Z,18.7
2022-08-19T00:34:06.675Z,18.6
2022-08-19T00:35:12.491Z,18.5
2022-08-19T00:36:13.613Z,18.4
2022-08-19T00:37:08.308Z,18.5
2022-08-19T00:38:06.981Z,18.6
2022-08-19T00:39:09.259Z,18.7
2022-08-19T00:40:07.720Z,18.7
2022-08-19T00:41:10.209Z,18.8
2022-08-19T00:42:12.217Z,18.6
2022-08-19T00:43:10.815Z,18.4
2022-08-19T00:44:07.358Z,18.4
2022-08-19T00:45:18.030Z,18.3
2022-08-19T00:46:08.921Z,18.2
2022-08-19T00:47:19.133Z,18
2022-08-19T00:50:02.458Z,18.2
2022-08-19T00:50:20.960Z,18.3
2022-08-19T00:51:08.268Z,18.2
2022-08-19T00:52:08.345Z,18.3
2022-08-19T00:53:08.229Z,18.4
2022-08-19T00:54:10.029Z,18.4
2022-08-19T00:55:08.033Z,18.5
2022-08-19T00:56:10.900Z,18.6
2022-08-19T00:57:09.776Z,18.7
2022-08-19T00:58:08.526Z,18.7
2022-08-19T00:59:09.251Z,18.7
2022-08-19T01:00:09.847Z,18.7
2022-08-19T01:01:09.171Z,18.8
2022-08-19T01:02:09.332Z,18.8
2022-08-19T01:03:09.491Z,18.8
2022-08-19T01:04:08.627Z,18.8
2022-08-19T01:05:09.772Z,18.8
2022-08-19T01:06:08.747Z,18.8
2022-08-19T01:07:15.126Z,18.9
2022-08-19T01:08:08.852Z,18.9
2022-08-19T01:09:08.857Z,18.9
2022-08-19T01:10:11.209Z,18.9
2022-08-19T01:11:09.473Z,18.9
2022-08-19T01:12:10.693Z,18.9
2022-08-19T01:13:09.498Z,18.9
2022-08-19T01:14:11.740Z,18.9
2022-08-19T01:15:09.205Z,18.9
2022-08-19T01:16:09.680Z,18.9
2022-08-19T01:17:09.919Z,18.9
2022-08-19T01:18:14.403Z,18.9
2022-08-19T01:19:09.703Z,18.9
2022-08-19T01:20:11.147Z,18.9
2022-08-19T01:21:09.467Z,18.9
2022-08-19T01:22:16.732Z,18.9
2022-08-19T01:23:10.573Z,18.9
2022-08-19T01:24:11.262Z,18.8
2022-08-19T01:25:14.981Z,18.7
2022-08-19T01:26:11.361Z,18.7
2022-08-19T01:27:10.851Z,18.7
2022-08-19T01:28:11.127Z,18.8
2022-08-19T01:29:10.471Z,18.8
2022-08-19T01:30:12.493Z,18.8
2022-08-19T01:31:10.266Z,18.8
2022-08-19T01:32:10.112Z,18.8
2022-08-19T01:33:11.486Z,18.9
2022-08-19T01:34:11.313Z,18.9
2022-08-19T01:35:11.364Z,18.7
2022-08-19T01:36:11.633Z,18.7
2022-08-19T01:37:10.456Z,18.7
2022-08-19T01:38:10.613Z,18.8
2022-08-19T01:39:10.661Z,18.8
2022-08-19T01:40:12.263Z,18.7
2022-08-19T01:41:12.025Z,18.6
2022-08-19T01:42:12.185Z,18.7
2022-08-19T01:43:12.673Z,18.8
2022-08-19T01:44:17.296Z,18.8
2022-08-19T01:45:11.028Z,18.7
2022-08-19T01:46:11.031Z,18.4
2022-08-19T01:47:11.225Z,18.2
2022-08-19T01:48:11.127Z,18.3
2022-08-19T01:49:13.440Z,18.4
2022-08-19T01:50:11.895Z,18.5
2022-08-19T01:51:13.165Z,18.4
2022-08-19T01:52:11.846Z,18.3
2022-08-19T01:53:11.471Z,18.3
2022-08-19T01:54:11.560Z,18.2
2022-08-19T01:55:13.974Z,18.2
2022-08-19T01:56:12.125Z,18.2
2022-08-19T01:57:11.572Z,18.3
2022-08-19T01:58:12.985Z,18.5
2022-08-19T01:59:11.831Z,18.5
2022-08-19T02:00:11.796Z,18.5
2022-08-19T02:01:12.228Z,18.6
2022-08-19T02:02:16.898Z,18.6
2022-08-19T02:03:17.206Z,18.6
2022-08-19T02:04:12.060Z,18.6
2022-08-19T02:05:12.484Z,18.5
2022-08-19T02:06:14.312Z,18.5
2022-08-19T02:07:12.292Z,18.5
2022-08-19T02:08:13.923Z,18.5
2022-08-19T02:09:12.312Z,18.5
2022-08-19T02:10:12.544Z,18.5
2022-08-19T02:11:18.047Z,18.5
2022-08-19T02:12:12.514Z,18.5
2022-08-19T02:13:14.308Z,18.5
2022-08-19T02:14:13.011Z,18.5
2022-08-19T02:15:14.101Z,18.5
2022-08-19T02:16:12.741Z,18.5
2022-08-19T02:17:13.772Z,18.5
2022-08-19T02:18:15.248Z,18.5
2022-08-19T02:19:13.225Z,18.4
2022-08-19T02:20:14.864Z,18.4
2022-08-19T02:21:24.571Z,18.4
2022-08-19T02:22:14.522Z,18.5
2022-08-19T02:23:16.012Z,18.5
2022-08-19T02:24:13.231Z,18.5
2022-08-19T02:25:13.271Z,18.5
2022-08-19T02:26:13.936Z,18.3
2022-08-19T02:27:13.712Z,18.2
2022-08-19T02:28:16.735Z,18.3
2022-08-19T02:29:15.453Z,18.3
2022-08-19T02:30:14.079Z,18.3
2022-08-19T02:31:14.196Z,18.3
2022-08-19T02:32:16.448Z,18.4
2022-08-19T02:33:16.773Z,18.5
2022-08-19T02:34:14.032Z,18.4
2022-08-19T02:35:15.531Z,18.4
2022-08-19T02:36:15.439Z,18.5
2022-08-19T02:37:14.001Z,18.6
2022-08-19T02:38:14.850Z,18.5
2022-08-19T02:39:14.764Z,18.5
2022-08-19T02:40:17.757Z,18.5
2022-08-19T02:41:14.696Z,18.5
2022-08-19T02:42:19.333Z,18.4
2022-08-19T02:43:18.768Z,18.5
2022-08-19T02:44:26.310Z,18.5
2022-08-19T02:45:19.435Z,18.5
2022-08-19T02:46:16.242Z,18.6
2022-08-19T02:47:17.911Z,18.6
2022-08-19T02:48:21.405Z,18.5
2022-08-19T02:49:14.958Z,18.4
2022-08-19T02:50:16.668Z,18.4
2022-08-19T02:51:14.967Z,18.4
2022-08-19T02:52:14.823Z,18.4
2022-08-19T02:53:15.200Z,18.4
2022-08-19T02:54:16.087Z,18.3
2022-08-19T02:55:16.192Z,18.2
2022-08-19T02:56:16.357Z,18
2022-08-19T02:57:15.134Z,17.8
2022-08-19T02:58:15.219Z,17.9
2022-08-19T02:59:15.287Z,18
2022-08-19T03:00:15.303Z,18.1
2022-08-19T03:01:15.445Z,18.2
2022-08-19T03:02:15.681Z,18.2
2022-08-19T03:03:15.723Z,18.2
2022-08-19T03:04:16.268Z,18.1
2022-08-19T03:05:15.595Z,18.1
2022-08-19T03:06:15.999Z,18.2
2022-08-19T03:07:15.919Z,18.3
2022-08-19T03:08:15.719Z,18.2
2022-08-19T03:09:15.802Z,18.3
2022-08-19T03:10:15.981Z,18.3
2022-08-19T03:11:16.121Z,18.2
2022-08-19T03:12:15.954Z,18.1
2022-08-19T03:13:17.013Z,18.1
2022-08-19T03:14:17.579Z,18.1
2022-08-19T03:15:16.117Z,18.1
2022-08-19T03:16:19.558Z,18
2022-08-19T03:17:16.279Z,18
2022-08-19T03:18:17.957Z,18
2022-08-19T03:19:16.625Z,17.9
2022-08-19T03:20:17.166Z,17.9
2022-08-19T03:21:18.627Z,17.9
2022-08-19T03:22:18.515Z,18
2022-08-19T03:23:16.656Z,17.9
2022-08-19T03:24:17.461Z,17.9
2022-08-19T03:25:16.811Z,17.9
2022-08-19T03:26:19.290Z,17.9
2022-08-19T03:27:17.316Z,17.9
2022-08-19T03:28:18.702Z,17.9
2022-08-19T03:29:18.296Z,18
2022-08-19T03:30:20.468Z,17.9
2022-08-19T03:31:42.199Z,18
2022-08-19T03:32:24.444Z,18.1
2022-08-19T03:33:26.466Z,18.2
2022-08-19T03:34:19.076Z,18.2
2022-08-19T03:35:23.597Z,18.2
2022-08-19T03:36:17.381Z,18.2
2022-08-19T03:37:17.489Z,18.3
2022-08-19T03:38:17.627Z,18.3
2022-08-19T03:39:18.801Z,18.3
2022-08-19T03:40:17.695Z,18.2
2022-08-19T03:41:18.367Z,18.2
2022-08-19T03:42:33.314Z,18.1
2022-08-19T03:43:17.883Z,18.1
2022-08-19T03:44:22.854Z,18.1
2022-08-19T03:45:17.927Z,18
2022-08-19T03:46:19.148Z,17.9
2022-08-19T03:47:18.177Z,18
2022-08-19T03:48:20.267Z,17.9
2022-08-19T03:49:18.732Z,17.8
2022-08-19T03:50:18.253Z,17.8
2022-08-19T03:51:18.442Z,17.8
2022-08-19T03:52:18.765Z,17.9
2022-08-19T03:53:21.594Z,17.9
2022-08-19T03:54:18.592Z,17.8
2022-08-19T03:55:19.023Z,17.6
2022-08-19T03:56:18.588Z,17.6
2022-08-19T03:57:18.656Z,17.8
2022-08-19T03:58:20.778Z,17.9
2022-08-19T03:59:20.048Z,18
2022-08-19T04:00:18.824Z,18
2022-08-19T04:01:19.581Z,17.9
2022-08-19T04:02:18.941Z,18
2022-08-19T04:03:26.462Z,18
2022-08-19T04:04:19.993Z,18
2022-08-19T04:05:20.238Z,18
2022-08-19T04:06:19.433Z,18
2022-08-19T04:07:19.230Z,18
2022-08-19T04:08:19.496Z,18
2022-08-19T04:09:19.324Z,18
2022-08-19T04:10:19.382Z,17.9
2022-08-19T04:11:19.465Z,17.9
2022-08-19T04:12:19.833Z,17.9
2022-08-19T04:13:19.591Z,17.9
2022-08-19T04:14:19.609Z,17.9
2022-08-19T04:15:20.313Z,17.9
2022-08-19T04:16:21.166Z,18
2022-08-19T04:17:20.091Z,18
2022-08-19T04:18:19.842Z,18
2022-08-19T04:19:19.872Z,17.9
2022-08-19T04:20:21.834Z,17.8
2022-08-19T04:21:20.002Z,17.8
2022-08-19T04:22:22.077Z,17.7
2022-08-19T04:23:20.255Z,17.8
2022-08-19T04:24:20.662Z,17.7
2022-08-19T04:25:22.153Z,17.6
2022-08-19T04:26:22.941Z,17.7
2022-08-19T04:27:22.293Z,17.6
2022-08-19T04:28:20.439Z,17.6
2022-08-19T04:29:22.239Z,17.5
2022-08-19T04:31:36.528Z,17.5
2022-08-19T04:32:20.657Z,17.5
2022-08-19T04:33:25.753Z,17.5
2022-08-19T04:34:20.816Z,17.5
2022-08-19T04:35:23.215Z,17.4
2022-08-19T04:36:21.577Z,17.4
2022-08-19T04:37:25.785Z,17.4
2022-08-19T04:38:21.112Z,17.4
2022-08-19T04:39:33.126Z,17.5
2022-08-19T04:40:23.323Z,17.6
2022-08-19T04:41:21.622Z,17.4
2022-08-19T04:42:30.810Z,17.5
2022-08-19T04:43:23.035Z,17.4
2022-08-19T04:44:21.603Z,17.5
2022-08-19T04:45:27.822Z,17.5
2022-08-19T04:46:23.523Z,17.6
2022-08-19T04:47:47.190Z,17.8
2022-08-19T04:48:26.979Z,17.6
2022-08-19T04:49:21.712Z,17.5
2022-08-19T04:50:23.729Z,17.4
2022-08-19T04:51:21.831Z,17.2
2022-08-19T04:52:28.863Z,17.3
2022-08-19T04:53:23.749Z,17.3
2022-08-19T04:54:33.826Z,17.3
2022-08-19T04:55:22.031Z,17.4
2022-08-19T04:56:22.417Z,17.5
2022-08-19T04:57:22.731Z,17.5
2022-08-19T04:58:22.225Z,17.5
2022-08-19T04:59:22.406Z,17.5
2022-08-19T05:00:22.408Z,17.5
2022-08-19T05:01:28.569Z,17.5
2022-08-19T05:02:22.635Z,17.5
2022-08-19T05:03:28.756Z,17.5
2022-08-19T05:04:22.663Z,17.5
2022-08-19T05:05:24.205Z,17.5
2022-08-19T05:06:24.345Z,17.4
2022-08-19T05:07:22.745Z,17.5
2022-08-19T05:08:30.552Z,17.5
2022-08-19T05:09:23.203Z,17.5
2022-08-19T05:10:22.954Z,17.5
2022-08-19T05:11:26.370Z,17.5
2022-08-19T05:12:23.833Z,17.4
2022-08-19T05:13:24.926Z,17.4
2022-08-19T05:14:23.113Z,17.4
2022-08-19T05:15:23.160Z,17.3
2022-08-19T05:16:23.264Z,17.5
2022-08-19T05:17:27.439Z,17.4
2022-08-19T05:18:24.432Z,17.3
2022-08-19T05:19:23.444Z,17.5
2022-08-19T05:20:23.432Z,17.6
2022-08-19T05:21:23.550Z,17.5
2022-08-19T05:22:28.810Z,17.5
2022-08-19T05:23:24.636Z,17.5
2022-08-19T05:24:24.390Z,17.4
2022-08-19T05:25:23.705Z,17.3
2022-08-19T05:26:26.531Z,17.4
2022-08-19T05:27:23.853Z,17.5
2022-08-19T05:28:25.974Z,17.6
2022-08-19T05:29:24.212Z,17.7
2022-08-19T05:30:24.474Z,17.8
2022-08-19T05:31:25.270Z,17.8
2022-08-19T05:32:24.315Z,18
2022-08-19T05:33:24.445Z,18.1
2022-08-19T05:34:26.920Z,18.1
2022-08-19T05:35:24.307Z,18.1
2022-08-19T05:36:24.311Z,18.1
2022-08-19T05:37:26.166Z,18.1
2022-08-19T05:38:24.475Z,18.2
2022-08-19T05:39:25.402Z,18.2
2022-08-19T05:40:24.548Z,18.2
2022-08-19T05:41:29.538Z,18.3
2022-08-19T05:42:25.481Z,18.3
2022-08-19T05:43:25.217Z,18.1
2022-08-19T05:44:24.772Z,18
2022-08-19T05:45:24.839Z,18.1
2022-08-19T05:46:29.820Z,18.2
2022-08-19T05:47:25.048Z,18.3
2022-08-19T05:48:42.850Z,18.3
2022-08-19T05:49:25.256Z,18.4
2022-08-19T05:50:26.326Z,18.4
2022-08-19T05:51:30.797Z,18.4
2022-08-19T05:52:25.653Z,18.3
2022-08-19T05:53:25.340Z,18.2
2022-08-19T05:54:25.373Z,18.1
2022-08-19T05:55:38.048Z,18
2022-08-19T05:56:26.291Z,18
2022-08-19T05:57:32.440Z,18.1
2022-08-19T05:58:28.167Z,18.1
2022-08-19T05:59:26.529Z,17.9
2022-08-19T06:00:25.748Z,17.9
2022-08-19T06:01:27.806Z,17.9
2022-08-19T06:02:25.942Z,17.9
2022-08-19T06:03:26.819Z,17.8
2022-08-19T06:04:26.909Z,18
2022-08-19T06:05:26.108Z,17.9
2022-08-19T06:06:26.072Z,18
2022-08-19T06:07:26.692Z,18.1
2022-08-19T06:08:34.058Z,18.2
2022-08-19T06:09:27.238Z,18.1
2022-08-19T06:10:26.888Z,18.2
2022-08-19T06:11:29.077Z,18.4
2022-08-19T06:12:31.406Z,18.2
2022-08-19T06:13:28.188Z,18.1
2022-08-19T06:14:27.906Z,18
2022-08-19T06:15:34.579Z,18
2022-08-19T06:16:31.652Z,18
2022-08-19T06:17:32.965Z,18.2
2022-08-19T06:18:38.854Z,18.4
2022-08-19T06:19:31.470Z,18.4
2022-08-19T06:20:54.819Z,18.3
2022-08-19T06:21:28.649Z,18.3
2022-08-19T06:22:27.231Z,18.3
2022-08-19T06:23:27.978Z,18.3
2022-08-19T06:24:36.403Z,18.3
2022-08-19T06:25:30.415Z,18.4
2022-08-19T06:26:29.774Z,18.5
2022-08-19T06:27:29.699Z,18.5
2022-08-19T06:28:27.314Z,18.4
2022-08-19T06:29:28.897Z,18.6
2022-08-19T06:30:27.529Z,18.5
2022-08-19T06:31:34.851Z,18.4
2022-08-19T06:32:27.922Z,18.4
2022-08-19T06:33:35.490Z,18.3
2022-08-19T06:34:28.099Z,18.5
2022-08-19T06:35:27.904Z,18.6
2022-08-19T06:36:29.276Z,18.6
2022-08-19T06:37:28.081Z,18.8
2022-08-19T06:38:28.320Z,18.8
2022-08-19T06:39:29.450Z,18.8
2022-08-19T06:40:28.764Z,18.8
2022-08-19T06:41:34.633Z,18.8
2022-08-19T06:42:28.081Z,18.9
2022-08-19T06:43:30.773Z,18.9
2022-08-19T06:44:29.055Z,18.8
2022-08-19T06:45:34.646Z,18.8
2022-08-19T06:46:30.784Z,19
2022-08-19T06:47:29.887Z,19
2022-08-19T06:48:29.178Z,19.1
2022-08-19T06:49:34.450Z,19.2
2022-08-19T06:50:28.596Z,19.3
2022-08-19T06:52:29.206Z,19.5
2022-08-19T06:53:36.851Z,19.5
2022-08-19T06:54:31.087Z,19.5
2022-08-19T06:55:31.524Z,19.5
2022-08-19T06:56:29.778Z,19.4
2022-08-19T06:57:28.947Z,19.6
2022-08-19T06:58:29.342Z,19.6
2022-08-19T06:59:29.085Z,19.7
2022-08-19T07:01:31.389Z,19.9
2022-08-19T07:02:29.274Z,19.8
2022-08-19T07:03:29.333Z,19.9
2022-08-19T07:05:31.907Z,20
2022-08-19T07:06:43.805Z,20.1
2022-08-19T07:07:30.127Z,20.2
2022-08-19T07:08:33.251Z,20.2
2022-08-19T07:09:30.380Z,20.2
2022-08-19T07:10:30.243Z,20.3
2022-08-19T07:11:30.737Z,20.3
2022-08-19T07:12:31.173Z,20.3
2022-08-19T07:13:34.704Z,20.3
2022-08-19T07:14:30.784Z,20.3
2022-08-19T07:15:34.682Z,20.2
2022-08-19T07:16:32.443Z,20.2
2022-08-19T07:17:30.562Z,20.2
2022-08-19T07:18:30.201Z,20.3
2022-08-19T07:19:34.682Z,20.4
2022-08-19T07:20:30.328Z,20.4
2022-08-19T07:21:37.510Z,20.5
2022-08-19T07:22:31.210Z,20.4
2022-08-19T07:23:41.968Z,20.5
2022-08-19T07:24:31.257Z,20.6
2022-08-19T07:25:32.005Z,20.6
2022-08-19T07:26:32.615Z,20.5
2022-08-19T07:27:33.555Z,20.6
2022-08-19T07:28:30.877Z,20.7
2022-08-19T07:29:31.407Z,20.9
2022-08-19T07:30:30.872Z,21
2022-08-19T07:31:46.328Z,20.9
2022-08-19T07:32:32.589Z,20.9
2022-08-19T07:33:41.946Z,20.9
2022-08-19T07:34:31.756Z,21
2022-08-19T07:35:33.493Z,21.1
2022-08-19T07:36:31.202Z,21
2022-08-19T07:37:35.019Z,21.2
2022-08-19T07:38:31.302Z,21.3
2022-08-19T07:39:35.786Z,21.3
2022-08-19T07:40:32.411Z,21.2
2022-08-19T07:41:40.408Z,21.2
2022-08-19T07:42:32.395Z,21.3
2022-08-19T07:43:35.262Z,21.4
2022-08-19T07:44:33.139Z,21.4
2022-08-19T07:45:36.723Z,21.2
2022-08-19T07:46:34.848Z,21.2
2022-08-19T07:47:47.324Z,21.2
2022-08-19T07:48:32.557Z,21.3
2022-08-19T07:49:32.523Z,21.1
2022-08-19T07:50:33.687Z,21
2022-08-19T07:51:36.828Z,21
2022-08-19T07:52:32.355Z,21.1
2022-08-19T07:53:39.608Z,21.3
2022-08-19T07:54:32.317Z,21.5
2022-08-19T07:55:46.605Z,21.6
2022-08-19T07:56:32.452Z,21.7
2022-08-19T07:57:33.178Z,21.6
2022-08-19T07:58:33.743Z,21.6
2022-08-19T07:59:36.963Z,21.6
2022-08-19T08:00:32.587Z,21.6
2022-08-19T08:01:34.404Z,21.7
2022-08-19T08:02:32.683Z,21.8
2022-08-19T08:03:33.774Z,21.7
2022-08-19T08:04:45.261Z,21.8
2022-08-19T08:05:35.664Z,21.9
2022-08-19T08:06:34.729Z,22
2022-08-19T08:07:33.865Z,21.9
2022-08-19T08:08:33.008Z,22
2022-08-19T08:09:35.056Z,22.1
2022-08-19T08:10:38.849Z,22
2022-08-19T08:11:37.912Z,21.8
2022-08-19T08:12:34.475Z,21.7
2022-08-19T08:13:34.113Z,21.6
2022-08-19T08:14:38.331Z,21.6
2022-08-19T08:15:40.016Z,21.7
2022-08-19T08:16:34.687Z,21.8
2022-08-19T08:17:48.531Z,22
2022-08-19T08:18:34.562Z,22.1
2022-08-19T08:19:34.488Z,22
2022-08-19T08:20:34.194Z,21.8
2022-08-19T08:22:38.849Z,21.6
2022-08-19T08:23:36.630Z,21.7
2022-08-19T08:24:33.940Z,21.9
2022-08-19T08:25:35.544Z,22
2022-08-19T08:26:35.959Z,21.9
2022-08-19T08:27:38.789Z,21.9
2022-08-19T08:28:38.972Z,21.8
2022-08-19T08:29:35.294Z,21.8
2022-08-19T08:30:34.263Z,21.9
2022-08-19T08:31:45.239Z,22
2022-08-19T08:32:36.056Z,22.2
2022-08-19T08:33:37.209Z,22.2
2022-08-19T08:34:41.852Z,22.1
2022-08-19T08:35:38.965Z,22.2
2022-08-19T08:36:35.110Z,22.3
2022-08-19T08:37:54.932Z,22.1
2022-08-19T08:38:42.033Z,22
2022-08-19T08:39:40.258Z,22.2
2022-08-19T08:41:19.865Z,22.3
2022-08-19T08:41:45.919Z,22.3
2022-08-19T08:42:35.312Z,22.6
2022-08-19T08:43:36.610Z,22.5
2022-08-19T08:45:10.867Z,22.3
2022-08-19T08:45:41.116Z,22.1
2022-08-19T08:47:13.259Z,22.1
2022-08-19T08:47:36.655Z,22.1
2022-08-19T08:48:53.102Z,22.2
2022-08-19T08:49:35.688Z,22.4
2022-08-19T08:52:18.785Z,23
2022-08-19T08:53:10.927Z,22.9
2022-08-19T08:53:40.587Z,22.9
2022-08-19T08:54:35.635Z,23.1
2022-08-19T08:55:37.450Z,23.3
2022-08-19T08:56:44.726Z,23.2
2022-08-19T08:57:37.036Z,23.1
2022-08-19T08:58:35.785Z,23.2
2022-08-19T08:59:36.194Z,23.3
2022-08-19T09:00:35.931Z,23.3
2022-08-19T09:01:40.997Z,23.4
2022-08-19T09:02:36.026Z,23.5
2022-08-19T09:03:37.189Z,23.5
2022-08-19T09:04:36.205Z,23.5
2022-08-19T09:05:41.471Z,23.6
2022-08-19T09:06:37.420Z,23.9
2022-08-19T09:07:38.790Z,23.6
2022-08-19T09:08:36.399Z,22.9
2022-08-19T09:09:38.273Z,22.9
2022-08-19T09:10:37.277Z,23
2022-08-19T09:11:41.978Z,23
2022-08-19T09:12:39.251Z,23
2022-08-19T09:13:37.432Z,22.9
2022-08-19T09:14:50.085Z,22.8
2022-08-19T09:15:37.075Z,22.8
2022-08-19T09:16:36.830Z,22.9
2022-08-19T09:17:36.882Z,22.9
2022-08-19T09:18:37.229Z,22.8
2022-08-19T09:19:42.321Z,22.6
2022-08-19T09:20:37.339Z,22.5
2022-08-19T09:21:37.472Z,22.3
2022-08-19T09:22:37.799Z,22.5
2022-08-19T09:23:40.579Z,22.8
2022-08-19T09:24:38.326Z,23.2
2022-08-19T09:25:37.410Z,23.4
2022-08-19T09:26:47.392Z,23.3
2022-08-19T09:27:42.682Z,23.4
2022-08-19T09:28:39.265Z,23.5
2022-08-19T09:29:37.578Z,23.6
2022-08-19T09:30:42.070Z,23.6
2022-08-19T09:31:39.543Z,23.8
2022-08-19T09:32:38.311Z,24
2022-08-19T09:33:37.779Z,24.2
2022-08-19T09:34:38.169Z,24.1
2022-08-19T09:35:43.937Z,24.1
2022-08-19T09:36:38.395Z,24.5
2022-08-19T09:37:41.080Z,24.7
2022-08-19T09:38:39.855Z,24.8
2022-08-19T09:39:39.026Z,24.5
2022-08-19T09:40:43.179Z,24.6
2022-08-19T09:41:39.838Z,24.7
2022-08-19T09:42:38.461Z,24.7
2022-08-19T09:43:44.434Z,24.6
2022-08-19T09:44:39.685Z,24.6
2022-08-19T09:45:38.630Z,24.7
2022-08-19T09:46:41.527Z,24.7
2022-08-19T09:47:38.881Z,24.6
2022-08-19T09:48:40.144Z,24.5
2022-08-19T09:49:38.654Z,24.8
2022-08-19T09:50:38.710Z,24.8
2022-08-19T09:51:39.065Z,24.5
2022-08-19T09:52:38.850Z,24.3
2022-08-19T09:53:38.890Z,23.9
2022-08-19T09:54:38.958Z,23.8
2022-08-19T09:55:39.178Z,23.7
2022-08-19T09:56:39.029Z,23.6
2022-08-19T09:57:39.117Z,23.6
2022-08-19T09:58:41.144Z,23.7
2022-08-19T09:59:40.134Z,23.5
2022-08-19T10:00:39.268Z,23.6
2022-08-19T10:01:41.416Z,23.6
2022-08-19T10:02:39.970Z,23.3
2022-08-19T10:03:40.252Z,23.3
2022-08-19T10:04:39.494Z,23.5
2022-08-19T10:05:42.268Z,23.3
2022-08-19T10:06:45.856Z,23.3
2022-08-19T10:07:39.699Z,23.3
2022-08-19T10:08:41.482Z,23.4
2022-08-19T10:09:39.788Z,23.5
2022-08-19T10:10:43.230Z,23.4
2022-08-19T10:11:42.475Z,23.3
2022-08-19T10:12:40.104Z,23.6
2022-08-19T10:13:40.645Z,23.6
2022-08-19T10:14:40.302Z,23.5
2022-08-19T10:15:45.150Z,23.5
2022-08-19T10:16:41.843Z,23.7
2022-08-19T10:17:40.224Z,24.1
2022-08-19T10:18:40.882Z,24.4
2022-08-19T10:19:40.474Z,24.6
2022-08-19T10:20:41.685Z,25.1
2022-08-19T10:21:40.806Z,25.2
2022-08-19T10:22:40.605Z,25.4
2022-08-19T10:23:42.928Z,25.2
2022-08-19T10:24:40.604Z,24.8
2022-08-19T10:25:41.374Z,24.3
2022-08-19T10:26:40.747Z,24.2
2022-08-19T10:27:43.368Z,24.6
2022-08-19T10:28:43.067Z,24.7
2022-08-19T10:29:43.045Z,24.8
2022-08-19T10:30:41.095Z,25.1
2022-08-19T10:32:00.272Z,25.6
2022-08-19T10:32:41.131Z,25.8
2022-08-19T10:33:53.721Z,25.5
2022-08-19T10:34:48.570Z,25.5
2022-08-19T10:35:56.725Z,25.5
2022-08-19T10:36:47.359Z,25.7
2022-08-19T10:37:44.960Z,25.5
2022-08-19T10:38:52.215Z,25.6
2022-08-19T10:39:43.020Z,26.1
2022-08-19T10:40:41.568Z,26.1
2022-08-19T10:41:41.604Z,26.2
2022-08-19T10:42:41.710Z,26.2
2022-08-19T10:43:41.757Z,26.3
2022-08-19T10:44:42.671Z,26.5
2022-08-19T10:45:52.242Z,26.4
2022-08-19T10:46:46.108Z,26.3
2022-08-19T10:47:41.960Z,26.3
2022-08-19T10:48:43.677Z,26.1
2022-08-19T10:49:42.056Z,25.6
2022-08-19T10:50:43.805Z,25.3
2022-08-19T10:51:46.613Z,25.2
2022-08-19T10:52:48.890Z,25.3
2022-08-19T10:53:42.326Z,25
2022-08-19T10:54:44.251Z,24.7
2022-08-19T10:55:42.570Z,24.4
2022-08-19T10:56:42.463Z,24.3
2022-08-19T10:58:01.622Z,24.2
2022-08-19T10:58:42.566Z,24.1
2022-08-19T10:59:44.876Z,24.2
2022-08-19T11:00:42.685Z,24.5
2022-08-19T11:01:44.352Z,25
2022-08-19T11:02:43.331Z,25.5
2022-08-19T11:03:42.868Z,26.1
2022-08-19T11:04:43.762Z,25.9
2022-08-19T11:05:44.211Z,25.6
2022-08-19T11:06:43.045Z,25.6
2022-08-19T11:07:43.147Z,25.7
2022-08-19T11:08:43.202Z,25.3
2022-08-19T11:09:44.352Z,24.9
2022-08-19T11:10:43.301Z,25.2
2022-08-19T11:11:43.348Z,25.5
2022-08-19T11:12:43.422Z,25.5
2022-08-19T11:13:43.453Z,25.7
2022-08-19T11:14:43.525Z,26
2022-08-19T11:15:45.513Z,26.2
2022-08-19T11:16:43.625Z,26.3
2022-08-19T11:17:44.931Z,26.7
2022-08-19T11:18:47.167Z,26.9
2022-08-19T11:19:44.198Z,26.8
2022-08-19T11:20:43.903Z,26.9
2022-08-19T11:21:45.289Z,27.2
2022-08-19T11:22:43.963Z,27.3
2022-08-19T11:23:44.390Z,27.5
2022-08-19T11:24:45.767Z,27.5
2022-08-19T11:25:46.389Z,27.4
2022-08-19T11:26:49.181Z,27.3
2022-08-19T11:27:44.267Z,27.2
2022-08-19T11:28:44.308Z,27
2022-08-19T11:29:44.371Z,26.9
2022-08-19T11:30:45.143Z,26.9
2022-08-19T11:31:46.096Z,26.7
2022-08-19T11:32:49.184Z,26
2022-08-19T11:33:48.201Z,26
2022-08-19T11:36:45.376Z,27
2022-08-19T11:37:44.980Z,26.9
2022-08-19T11:38:44.977Z,26.8
2022-08-19T11:39:46.147Z,26.5
2022-08-19T11:40:46.543Z,26.1
2022-08-19T11:41:45.029Z,26.2
2022-08-19T11:42:47.688Z,25.9
2022-08-19T11:43:45.131Z,25.4
2022-08-19T11:44:45.383Z,25
2022-08-19T11:45:47.612Z,25.1
2022-08-19T11:46:47.977Z,25.5
2022-08-19T11:47:45.393Z,26
2022-08-19T11:48:45.453Z,26.7
2022-08-19T11:49:46.317Z,27
2022-08-19T11:50:45.563Z,27
2022-08-19T11:51:46.975Z,27
2022-08-19T11:52:46.305Z,27.1
2022-08-19T11:53:47.264Z,27.1
2022-08-19T11:54:45.771Z,27.1
2022-08-19T11:55:46.856Z,27.1
2022-08-19T11:56:45.878Z,27.3
2022-08-19T11:57:45.940Z,27.6
2022-08-19T11:58:51.101Z,27.5
2022-08-19T11:59:46.075Z,27.5
2022-08-19T12:00:48.289Z,27.5
2022-08-19T12:01:48.797Z,27.7
2022-08-19T12:02:46.173Z,27.6
2022-08-19T12:03:48.278Z,27.3
2022-08-19T12:04:46.340Z,27
2022-08-19T12:05:48.116Z,26.8
2022-08-19T12:06:46.420Z,27.1
2022-08-19T12:07:48.315Z,27.1
2022-08-19T12:08:46.685Z,27.5
2022-08-19T12:09:48.563Z,28.1
2022-08-19T12:10:47.934Z,28.3
2022-08-19T12:11:46.878Z,28.1
2022-08-19T12:12:47.439Z,27.9
2022-08-19T12:13:47.424Z,27.6
2022-08-19T12:14:47.780Z,27.3
2022-08-19T12:15:47.311Z,27.1
2022-08-19T12:16:48.700Z,26.7
2022-08-19T12:17:47.323Z,26.4
2022-08-19T12:18:47.293Z,26.1
2022-08-19T12:19:48.909Z,25.9
2022-08-19T12:20:49.209Z,26
2022-08-19T12:21:47.510Z,26.3
2022-08-19T12:22:47.545Z,26.8
2022-08-19T12:23:51.682Z,26.8
2022-08-19T12:24:49.619Z,26.9
2022-08-19T12:25:48.320Z,26.8
2022-08-19T12:26:52.734Z,27.2
2022-08-19T12:27:52.887Z,27.4
2022-08-19T12:28:48.818Z,27.5
2022-08-19T12:29:49.603Z,27.6
2022-08-19T12:30:49.240Z,27.8
2022-08-19T12:31:48.011Z,27.8
2022-08-19T12:32:51.055Z,27.7
2022-08-19T12:33:48.674Z,27.8
2022-08-19T12:34:48.511Z,27.9
2022-08-19T12:35:49.876Z,28.3
2022-08-19T12:36:53.543Z,28
2022-08-19T12:37:56.787Z,27.9
2022-08-19T12:38:49.633Z,28
2022-08-19T12:39:48.718Z,27.9
2022-08-19T12:40:50.533Z,28.1
2022-08-19T12:41:51.488Z,28.2
2022-08-19T12:42:49.036Z,28.3
2022-08-19T12:43:50.173Z,28.3
2022-08-19T12:44:49.445Z,28.4
2022-08-19T12:45:48.793Z,28.4
2022-08-19T12:46:50.431Z,28.2
2022-08-19T12:47:49.557Z,28.1
2022-08-19T12:48:49.618Z,28.3
2022-08-19T12:50:26.925Z,28.3
2022-08-19T12:51:39.817Z,28.3
2022-08-19T12:51:51.140Z,28
2022-08-19T12:52:49.393Z,27.8
2022-08-19T12:53:49.784Z,28.2
2022-08-19T12:54:49.381Z,28.5
2022-08-19T12:55:54.780Z,28.4
2022-08-19T12:56:49.478Z,28.2
2022-08-19T12:57:53.946Z,27.7
2022-08-19T12:58:50.738Z,27.1
2022-08-19T12:59:49.836Z,27.2
2022-08-19T13:00:52.424Z,27.5
2022-08-19T13:01:50.101Z,28
2022-08-19T13:02:54.854Z,28
2022-08-19T13:03:51.029Z,28
2022-08-19T13:04:53.302Z,27.9
2022-08-19T13:05:50.302Z,28.2
2022-08-19T13:06:50.424Z,28.3
2022-08-19T13:07:50.183Z,28
2022-08-19T13:08:59.087Z,27.7
2022-08-19T13:09:51.371Z,27.3
2022-08-19T13:10:55.531Z,26.9
2022-08-19T13:11:50.448Z,26.8
2022-08-19T13:12:50.551Z,26.8
2022-08-19T13:13:51.315Z,27
2022-08-19T13:14:50.687Z,26.9
2022-08-19T13:15:50.594Z,26.8
2022-08-19T13:16:52.366Z,26.5
2022-08-19T13:17:51.222Z,26.3
2022-08-19T13:18:55.892Z,26
2022-08-19T13:19:55.878Z,25.7
2022-08-19T13:20:52.448Z,25.8
2022-08-19T13:21:51.231Z,26
2022-08-19T13:22:56.081Z,26.5
2022-08-19T13:23:51.154Z,27
2022-08-19T13:24:51.210Z,27.5
2022-08-19T13:25:51.898Z,27.3
2022-08-19T13:26:51.323Z,27
2022-08-19T13:27:56.421Z,27.1
2022-08-19T13:28:51.503Z,27
2022-08-19T13:29:53.258Z,27
2022-08-19T13:30:53.038Z,26.8
2022-08-19T13:31:53.318Z,26.9
2022-08-19T13:32:51.692Z,27.2
2022-08-19T13:33:51.886Z,27.4